Time;durP1;ratioP1;P1;durP2;ratioP2;P2;SDS_P1;SDS_P2;PMS_P1;PMS_P2;Temp;Humidity;BMP_temperature;BMP_pressure;BME280_temperature;BME280_humidity;BME280_pressure;Samples;Min_cycle;Max_cycle;Signal;HPM_P1;HPM_P2
2020/12/31 00:01:24;;;;;;;31.00;18.00;;;;;;;3.35;90.70;100298.22;5044136;28;20033;-80
2020/12/31 00:03:50;;;;;;;29.35;18.60;;;;;;;3.36;90.54;100294.72;5017023;28;20037;-79
2020/12/31 00:06:16;;;;;;;23.02;17.77;;;;;;;3.37;90.44;100280.81;5030985;28;20151;-79
2020/12/31 00:08:42;;;;;;;25.80;18.10;;;;;;;3.43;90.63;100295.13;5042628;28;20469;-78
2020/12/31 00:11:08;;;;;;;26.08;16.95;;;;;;;3.47;90.27;100293.94;5044111;28;20033;-79
2020/12/31 00:13:34;;;;;;;24.85;17.33;;;;;;;3.45;90.24;100294.06;5031987;28;20486;-79
2020/12/31 00:15:59;;;;;;;26.48;17.55;;;;;;;3.44;90.36;100288.97;5037691;28;20033;-78
2020/12/31 00:18:25;;;;;;;23.13;17.60;;;;;;;3.50;90.05;100296.28;5039996;28;20454;-78
2020/12/31 00:20:51;;;;;;;23.45;16.63;;;;;;;3.50;90.00;100299.75;5041794;28;20044;-78
2020/12/31 00:23:16;;;;;;;24.13;17.33;;;;;;;3.45;90.26;100295.81;5012561;28;20037;-78
2020/12/31 00:25:50;;;;;;;24.23;17.02;;;;;;;3.51;90.10;100300.56;5024238;28;20649;-79
2020/12/31 00:28:17;;;;;;;22.85;17.30;;;;;;;3.46;90.30;100295.69;5048917;28;20620;-78
2020/12/31 00:30:44;;;;;;;29.80;17.88;;;;;;;3.50;90.08;100298.88;5042204;28;20501;-78
2020/12/31 00:33:11;;;;;;;28.98;17.33;;;;;;;3.50;89.85;100307.53;5052275;28;20183;-78
2020/12/31 00:35:37;;;;;;;21.85;17.05;;;;;;;3.50;89.19;100302.34;5028332;28;20080;-79
2020/12/31 00:38:03;;;;;;;21.35;16.15;;;;;;;3.52;89.34;100302.19;5049034;28;20406;-80
2020/12/31 00:40:28;;;;;;;23.80;16.98;;;;;;;3.53;89.76;100306.47;5057222;28;20049;-80
2020/12/31 00:42:54;;;;;;;23.40;16.85;;;;;;;3.49;89.75;100303.25;5052009;28;20045;-80
2020/12/31 00:45:19;;;;;;;23.17;16.92;;;;;;;3.49;89.56;100294.66;5072748;28;20495;-80
2020/12/31 00:47:45;;;;;;;24.35;16.27;;;;;;;3.50;89.53;100306.66;5055046;28;20032;-79
2020/12/31 00:50:11;;;;;;;26.50;17.70;;;;;;;3.48;89.41;100303.38;5058928;28;20035;-78
2020/12/31 00:52:36;;;;;;;30.70;17.30;;;;;;;3.54;89.72;100315.06;5053039;28;20044;-80
2020/12/31 00:55:03;;;;;;;27.25;16.25;;;;;;;3.51;89.43;100316.94;5052986;28;20033;-79
2020/12/31 00:57:28;;;;;;;21.83;15.32;;;;;;;3.55;88.88;100311.53;5053400;28;20037;-80
2020/12/31 00:59:54;;;;;;;18.00;14.10;;;;;;;3.56;88.57;100316.63;5031107;28;20037;-80
2020/12/31 01:02:20;;;;;;;20.20;14.90;;;;;;;3.56;88.73;100316.63;5048067;28;20044;-80
2020/12/31 01:04:45;;;;;;;17.25;13.57;;;;;;;3.49;89.22;100320.59;5041212;28;20593;-79
2020/12/31 01:07:15;;;;;;;17.55;13.40;;;;;;;3.51;88.90;100319.53;5043792;28;20029;-79
2020/12/31 01:09:41;;;;;;;19.15;12.75;;;;;;;3.49;88.52;100316.22;5064795;28;20041;-79
2020/12/31 01:12:06;;;;;;;20.15;12.52;;;;;;;3.53;87.50;100316.00;5052607;28;20051;-78
2020/12/31 01:14:32;;;;;;;19.33;13.18;;;;;;;3.44;88.07;100323.50;5064065;28;20116;-80
2020/12/31 01:16:57;;;;;;;17.30;12.20;;;;;;;3.40;88.07;100321.25;5056284;28;20066;-80
2020/12/31 01:19:23;;;;;;;17.65;11.93;;;;;;;3.26;88.99;100325.66;5059551;28;20788;-79
2020/12/31 01:21:48;;;;;;;16.33;11.93;;;;;;;3.27;88.97;100324.72;5043626;28;20056;-78
2020/12/31 01:24:14;;;;;;;18.55;12.23;;;;;;;3.26;88.76;100322.25;5058469;28;20041;-81
2020/12/31 01:26:39;;;;;;;17.88;11.98;;;;;;;3.26;88.65;100327.44;5068106;28;20048;-81
2020/12/31 01:29:05;;;;;;;21.00;12.35;;;;;;;3.24;88.74;100327.53;5070110;28;20403;-80
2020/12/31 01:31:31;;;;;;;16.80;12.00;;;;;;;3.23;88.86;100322.47;5036614;28;20083;-80
2020/12/31 01:33:57;;;;;;;16.92;11.82;;;;;;;3.14;88.69;100323.94;5039941;28;20450;-82
2020/12/31 01:36:23;;;;;;;18.45;11.82;;;;;;;3.04;88.82;100315.97;5070486;28;20037;-79
2020/12/31 01:38:48;;;;;;;18.17;12.93;;;;;;;3.00;88.71;100324.91;5057323;28;20044;-79
2020/12/31 01:41:15;;;;;;;17.60;12.73;;;;;;;2.88;89.07;100324.03;5042507;28;20451;-80
2020/12/31 01:43:40;;;;;;;16.58;12.82;;;;;;;2.84;88.91;100326.91;5041255;28;20037;-80
2020/12/31 01:46:11;;;;;;;22.70;12.90;;;;;;;2.85;89.15;100331.19;5048770;28;20039;-79
2020/12/31 01:48:38;;;;;;;17.27;11.95;;;;;;;2.78;89.13;100333.34;5044324;28;20033;-80
2020/12/31 01:51:04;;;;;;;22.67;12.90;;;;;;;2.75;89.02;100327.56;5021467;28;20029;-80
2020/12/31 01:53:29;;;;;;;16.70;12.70;;;;;;;2.66;89.11;100329.84;5035136;28;20414;-80
2020/12/31 01:56:00;;;;;;;18.95;12.25;;;;;;;2.64;89.56;100336.91;5047024;28;20625;-80
2020/12/31 01:58:25;;;;;;;23.55;13.70;;;;;;;2.55;89.23;100326.34;5018009;28;20037;-80
2020/12/31 02:00:50;;;;;;;23.30;13.30;;;;;;;2.56;89.42;100335.75;5043259;28;20130;-80
2020/12/31 02:03:16;;;;;;;19.85;12.80;;;;;;;2.55;89.24;100345.28;5032820;28;20056;-80
2020/12/31 02:05:44;;;;;;;20.80;13.45;;;;;;;2.45;89.09;100329.56;5033306;28;20025;-79
2020/12/31 02:08:09;;;;;;;21.83;13.88;;;;;;;2.51;89.45;100333.50;5035541;28;20036;-80
2020/12/31 02:10:35;;;;;;;21.40;14.40;;;;;;;2.52;89.21;100341.16;5050013;28;20033;-80
2020/12/31 02:13:00;;;;;;;23.27;14.00;;;;;;;2.50;89.61;100342.19;5015493;28;20435;-79
2020/12/31 02:15:26;;;;;;;20.58;13.40;;;;;;;2.47;89.66;100335.47;5033136;28;20087;-81
2020/12/31 02:17:51;;;;;;;26.77;15.13;;;;;;;2.37;90.05;100339.59;5052251;28;20454;-80
2020/12/31 02:20:17;;;;;;;24.45;14.73;;;;;;;2.34;89.89;100339.81;5055714;28;20499;-80
2020/12/31 02:22:43;;;;;;;23.40;16.80;;;;;;;2.37;90.22;100343.94;5040394;28;20596;-82
2020/12/31 02:25:08;;;;;;;25.10;17.33;;;;;;;2.34;90.18;100342.41;5035496;28;20037;-81
2020/12/31 02:27:34;;;;;;;28.27;18.20;;;;;;;2.26;90.44;100337.75;5032996;28;20414;-79
2020/12/31 02:29:59;;;;;;;27.90;17.92;;;;;;;2.26;90.43;100339.47;5045864;28;20116;-80
2020/12/31 02:32:24;;;;;;;31.10;20.00;;;;;;;2.29;90.63;100345.28;5043232;28;20139;-80
2020/12/31 02:34:50;;;;;;;34.70;20.40;;;;;;;2.39;90.84;100353.25;5025622;28;20033;-81
2020/12/31 02:37:16;;;;;;;33.83;20.48;;;;;;;2.43;90.24;100352.16;5028916;28;20063;-81
2020/12/31 02:39:42;;;;;;;30.27;20.08;;;;;;;2.44;90.46;100352.97;5032203;28;20040;-82
2020/12/31 02:42:07;;;;;;;34.13;21.30;;;;;;;2.52;89.68;100348.94;5069065;28;20029;-79
2020/12/31 02:44:33;;;;;;;32.63;21.13;;;;;;;2.64;89.12;100360.22;5047031;28;20093;-79
2020/12/31 02:46:59;;;;;;;33.60;20.92;;;;;;;2.67;89.55;100366.94;5049960;28;20451;-80
2020/12/31 02:49:25;;;;;;;36.30;21.10;;;;;;;2.71;89.17;100363.19;5056527;28;20045;-80
2020/12/31 02:51:50;;;;;;;34.78;21.55;;;;;;;2.72;89.02;100362.28;5053258;28;20044;-79
2020/12/31 02:54:16;;;;;;;36.85;21.70;;;;;;;2.68;88.49;100353.88;5049850;28;20041;-80
2020/12/31 02:56:41;;;;;;;35.05;22.27;;;;;;;2.68;88.87;100356.47;5039627;28;20037;-79
2020/12/31 02:59:07;;;;;;;40.05;22.75;;;;;;;2.65;88.44;100354.06;5055517;28;20115;-80
2020/12/31 03:01:32;;;;;;;36.38;23.20;;;;;;;2.67;88.50;100359.97;5029686;28;20076;-79
2020/12/31 03:03:58;;;;;;;38.95;23.05;;;;;;;2.58;88.51;100347.69;5072566;28;20109;-78
2020/12/31 03:06:23;;;;;;;35.90;23.13;;;;;;;2.56;88.82;100354.69;5072009;28;20069;-79
2020/12/31 03:08:49;;;;;;;35.17;23.05;;;;;;;2.53;88.82;100347.16;5075231;28;20124;-79
2020/12/31 03:11:16;;;;;;;38.17;22.90;;;;;;;2.60;88.27;100356.19;5051873;28;20060;-80
2020/12/31 03:13:42;;;;;;;44.53;24.77;;;;;;;2.60;88.37;100340.63;5019464;28;20099;-80
2020/12/31 03:16:07;;;;;;;40.95;24.63;;;;;;;2.60;88.64;100344.97;5033830;28;20068;-79
2020/12/31 03:18:33;;;;;;;41.92;24.08;;;;;;;2.63;88.32;100350.78;5030807;28;20179;-80
2020/12/31 03:20:58;;;;;;;43.05;24.65;;;;;;;2.57;88.52;100348.59;5032201;28;20103;-79
2020/12/31 03:23:24;;;;;;;44.67;25.45;;;;;;;2.53;88.80;100344.56;5049713;28;20615;-80
2020/12/31 03:25:49;;;;;;;39.83;24.00;;;;;;;2.58;88.53;100349.44;5043212;28;20391;-79
2020/12/31 03:28:15;;;;;;;41.58;26.20;;;;;;;2.46;88.55;100341.56;5039701;28;20061;-80
2020/12/31 03:30:44;;;;;;;43.97;25.75;;;;;;;2.50;89.08;100349.94;5040071;28;20084;-80
2020/12/31 03:33:13;;;;;;;41.65;25.48;;;;;;;2.48;89.36;100346.63;5033948;28;20411;-80
2020/12/31 03:35:43;;;;;;;43.65;25.75;;;;;;;2.50;88.98;100348.19;5050960;28;20033;-81
2020/12/31 03:38:10;;;;;;;46.47;26.20;;;;;;;2.52;88.70;100342.91;5048512;28;20034;-80
2020/12/31 03:40:35;;;;;;;45.63;27.00;;;;;;;2.60;88.70;100348.41;5041590;28;20032;-80
2020/12/31 03:43:02;;;;;;;47.22;27.40;;;;;;;2.64;87.93;100352.44;5048083;28;20041;-81
2020/12/31 03:45:27;;;;;;;44.55;27.33;;;;;;;2.59;88.58;100346.75;5046244;28;20083;-80
2020/12/31 03:47:53;;;;;;;44.47;25.08;;;;;;;2.65;87.90;100345.50;5026793;28;20064;-79
2020/12/31 03:50:21;;;;;;;45.22;25.10;;;;;;;2.70;87.83;100356.38;5029100;28;20052;-81
2020/12/31 03:52:47;;;;;;;40.10;26.08;;;;;;;2.67;87.66;100357.38;5026798;28;20048;-79
2020/12/31 03:55:12;;;;;;;44.90;25.85;;;;;;;2.65;87.94;100350.66;5056954;28;20041;-80
2020/12/31 03:57:38;;;;;;;45.08;26.48;;;;;;;2.63;88.21;100355.94;5040398;28;20033;-80
2020/12/31 04:00:04;;;;;;;43.75;27.08;;;;;;;2.61;88.05;100351.81;5056049;28;20044;-81
2020/12/31 04:02:31;;;;;;;48.95;27.52;;;;;;;2.58;88.19;100350.28;5069244;28;20029;-79
2020/12/31 04:04:58;;;;;;;45.70;27.85;;;;;;;2.56;88.05;100349.53;5055207;28;20348;-81
2020/12/31 04:07:23;;;;;;;47.42;27.38;;;;;;;2.51;88.60;100349.84;5054862;28;20048;-80
2020/12/31 04:09:49;;;;;;;43.38;26.08;;;;;;;2.51;88.21;100343.84;5054353;28;20041;-80
2020/12/31 04:12:14;;;;;;;47.58;26.35;;;;;;;2.50;88.63;100340.41;5033123;28;20482;-79
2020/12/31 04:14:40;;;;;;;45.92;27.60;;;;;;;2.54;87.84;100338.44;5035837;28;20056;-81
2020/12/31 04:17:05;;;;;;;44.38;25.17;;;;;;;2.52;88.10;100335.13;5035628;28;20037;-80
2020/12/31 04:19:31;;;;;;;44.97;27.58;;;;;;;2.51;87.83;100336.91;5034612;28;20040;-80
2020/12/31 04:21:56;;;;;;;39.78;25.25;;;;;;;2.51;88.16;100344.69;5024976;28;20032;-81
2020/12/31 04:24:22;;;;;;;41.78;25.00;;;;;;;2.57;87.67;100343.44;5040259;28;20063;-80
2020/12/31 04:26:49;;;;;;;45.72;26.85;;;;;;;2.57;88.02;100342.59;5041364;28;20123;-79
2020/12/31 04:29:14;;;;;;;45.30;26.92;;;;;;;2.59;88.18;100343.34;5051797;28;20114;-80
2020/12/31 04:31:40;;;;;;;44.28;26.42;;;;;;;2.55;88.23;100342.72;5047789;28;20119;-81
2020/12/31 04:34:05;;;;;;;49.55;26.23;;;;;;;2.62;87.89;100345.69;5031490;28;20664;-80
2020/12/31 04:36:31;;;;;;;40.65;25.40;;;;;;;2.65;87.66;100348.91;5037037;28;20037;-79
2020/12/31 04:38:56;;;;;;;42.13;25.23;;;;;;;2.67;87.83;100347.03;5050186;28;20063;-80
2020/12/31 04:41:22;;;;;;;43.92;25.38;;;;;;;2.65;87.37;100353.25;5034839;28;20098;-78
2020/12/31 04:43:48;;;;;;;44.42;26.00;;;;;;;2.68;87.72;100351.28;5039097;28;20037;-80
2020/12/31 04:46:18;;;;;;;47.67;26.23;;;;;;;2.69;87.44;100350.38;5037111;28;20029;-79
2020/12/31 04:48:49;;;;;;;41.53;25.83;;;;;;;2.70;87.03;100358.97;5029135;28;20086;-79
2020/12/31 04:51:15;;;;;;;44.85;26.02;;;;;;;2.68;87.50;100359.06;5016919;28;20037;-79
2020/12/31 04:53:41;;;;;;;47.92;25.95;;;;;;;2.67;87.61;100353.97;5032463;28;20041;-79
2020/12/31 04:56:08;;;;;;;45.95;26.08;;;;;;;2.66;88.04;100355.75;5040002;28;20048;-79
2020/12/31 04:58:33;;;;;;;42.00;25.65;;;;;;;2.66;87.55;100352.34;5054086;28;20040;-78
2020/12/31 05:00:59;;;;;;;46.40;26.95;;;;;;;2.63;87.72;100357.72;5006202;28;20037;-78
2020/12/31 05:03:24;;;;;;;46.25;27.13;;;;;;;2.62;87.86;100356.03;5023965;28;20063;-79
2020/12/31 05:05:55;;;;;;;45.00;26.63;;;;;;;2.59;87.91;100356.28;5068557;28;20033;-79
2020/12/31 05:08:26;;;;;;;45.33;26.70;;;;;;;2.60;87.95;100360.50;5037165;28;20132;-78
2020/12/31 05:10:53;;;;;;;47.00;28.75;;;;;;;2.53;88.49;100349.75;5036862;28;20033;-78
2020/12/31 05:13:19;;;;;;;47.90;28.90;;;;;;;2.51;88.19;100357.63;5053177;28;20387;-79
2020/12/31 05:15:44;;;;;;;47.38;28.35;;;;;;;2.43;88.38;100354.72;5016582;28;20099;-78
2020/12/31 05:18:23;;;;;;;50.13;28.23;;;;;;;2.40;88.49;100354.09;5058076;28;20060;-77
2020/12/31 05:20:51;;;;;;;48.13;28.55;;;;;;;2.38;88.50;100354.22;5017464;28;20041;-79
2020/12/31 05:23:21;;;;;;;49.13;29.67;;;;;;;2.31;88.64;100352.94;5020312;28;20028;-79
2020/12/31 05:25:48;;;;;;;56.10;30.10;;;;;;;2.28;88.59;100361.75;5021533;28;20043;-80
2020/12/31 05:28:33;;;;;;;50.63;29.45;;;;;;;2.21;89.01;100357.91;5049178;28;20061;-79
2020/12/31 05:31:00;;;;;;;51.40;30.38;;;;;;;2.18;89.21;100358.13;5044820;28;20042;-80
2020/12/31 05:33:28;;;;;;;50.72;28.15;;;;;;;2.11;89.55;100362.03;5004341;28;20045;-78
2020/12/31 05:36:18;;;;;;;47.35;28.60;;;;;;;2.06;89.54;100364.13;5016072;28;20392;-77
2020/12/31 05:38:45;;;;;;;55.42;29.02;;;;;;;2.00;89.62;100359.31;5033888;28;20079;-80
2020/12/31 05:41:11;;;;;;;62.47;29.73;;;;;;;2.02;89.64;100365.25;5052673;28;20155;-78
2020/12/31 05:43:39;;;;;;;52.72;29.92;;;;;;;1.98;89.56;100359.44;5035815;28;20766;-77
2020/12/31 05:46:10;;;;;;;50.72;30.20;;;;;;;1.92;89.58;100360.69;5019278;28;20033;-78
2020/12/31 05:48:36;;;;;;;51.33;28.85;;;;;;;1.89;90.01;100360.88;5014832;28;20037;-78
2020/12/31 05:51:41;;;;;;;49.40;28.00;;;;;;;1.90;89.63;100359.94;5051025;28;20494;-80
2020/12/31 05:54:12;;;;;;;50.65;28.88;;;;;;;1.87;89.89;100361.91;5029919;28;20045;-78
2020/12/31 05:56:40;;;;;;;55.47;29.50;;;;;;;1.76;90.02;100360.00;5015027;28;20179;-78
2020/12/31 05:59:06;;;;;;;49.55;27.98;;;;;;;1.79;89.91;100357.22;5037750;28;20052;-77
2020/12/31 06:01:35;;;;;;;53.55;28.98;;;;;;;1.74;90.04;100359.28;5026795;28;20029;-78
2020/12/31 06:04:29;;;;;;;52.80;29.45;;;;;;;1.67;90.29;100355.44;5007828;28;20119;-78
2020/12/31 06:07:01;;;;;;;54.45;29.48;;;;;;;1.65;90.18;100355.53;5038557;28;20530;-77
2020/12/31 06:09:29;;;;;;;49.05;27.98;;;;;;;1.56;90.77;100361.28;5029688;28;20072;-79
2020/12/31 06:12:06;;;;;;;55.35;29.00;;;;;;;1.59;90.71;100355.09;5020090;28;20040;-78
2020/12/31 06:14:32;;;;;;;48.80;28.20;;;;;;;1.50;91.00;100361.66;5055259;28;20033;-79
2020/12/31 06:17:01;;;;;;;51.30;28.30;;;;;;;1.51;91.14;100356.41;5063585;28;20110;-79
2020/12/31 06:19:34;;;;;;;50.92;27.05;;;;;;;1.49;90.78;100360.84;5053116;28;20062;-79
2020/12/31 06:22:06;;;;;;;52.75;28.20;;;;;;;1.42;90.97;100359.56;5052536;28;20490;-78
2020/12/31 06:24:34;;;;;;;50.97;29.05;;;;;;;1.38;90.94;100357.31;5051334;28;20040;-78
2020/12/31 06:27:05;;;;;;;51.75;28.33;;;;;;;1.35;91.12;100364.28;5035209;28;20062;-78
2020/12/31 06:29:37;;;;;;;53.50;28.50;;;;;;;1.27;91.68;100363.97;5018841;28;20037;-79
2020/12/31 06:32:10;;;;;;;55.30;29.30;;;;;;;1.33;91.24;100375.66;5031991;28;20037;-79
2020/12/31 06:34:36;;;;;;;49.40;26.98;;;;;;;1.39;91.22;100366.69;5052524;28;20036;-78
2020/12/31 06:37:07;;;;;;;48.03;26.27;;;;;;;1.39;91.31;100375.28;5028936;28;20585;-78
2020/12/31 06:39:33;;;;;;;50.80;26.77;;;;;;;1.44;91.00;100372.41;5051315;28;20037;-77
2020/12/31 06:41:58;;;;;;;52.17;26.65;;;;;;;1.39;90.94;100372.69;5035119;28;20403;-79
2020/12/31 06:44:29;;;;;;;50.08;27.05;;;;;;;1.46;91.00;100386.88;5041771;28;20116;-79
2020/12/31 06:46:54;;;;;;;52.28;26.65;;;;;;;1.43;90.80;100394.00;5022415;28;20124;-79
2020/12/31 06:49:20;;;;;;;50.35;25.42;;;;;;;1.41;91.16;100388.09;5036008;28;20583;-80
2020/12/31 06:51:45;;;;;;;51.85;26.95;;;;;;;1.46;91.16;100391.22;5019066;28;20124;-78
2020/12/31 06:54:11;;;;;;;47.08;26.15;;;;;;;1.40;91.30;100389.03;5031993;28;20051;-77
2020/12/31 06:56:42;;;;;;;47.97;24.92;;;;;;;1.39;91.14;100389.94;5028636;28;20472;-79
2020/12/31 06:59:27;;;;;;;51.45;25.95;;;;;;;1.29;91.55;100389.69;5068370;28;20526;-79
2020/12/31 07:01:54;;;;;;;52.30;26.58;;;;;;;1.17;91.89;100392.13;5018341;28;20029;-79
2020/12/31 07:04:27;;;;;;;49.03;26.20;;;;;;;1.13;91.75;100384.63;5032589;28;20219;-79
2020/12/31 07:06:53;;;;;;;;;;;;;;;1.09;91.77;100394.34;5043592;28;20037;-81
2020/12/31 07:09:31;;;;;;;44.30;24.17;;;;;;;1.09;91.93;100394.34;5052467;28;19913;-79
2020/12/31 07:11:59;;;;;;;47.30;26.17;;;;;;;1.14;91.92;100401.81;5017393;28;20049;-78
2020/12/31 07:14:26;;;;;;;46.83;25.77;;;;;;;1.15;91.52;100403.47;5051954;28;20040;-79
2020/12/31 07:16:56;;;;;;;48.53;25.13;;;;;;;1.12;91.57;100396.72;5059182;28;20030;-78
2020/12/31 07:19:38;;;;;;;45.03;26.08;;;;;;;1.07;91.47;100401.34;5015376;28;20045;-79
2020/12/31 07:22:10;;;;;;;44.42;24.30;;;;;;;1.09;91.73;100393.50;5055524;28;20033;-78
2020/12/31 07:24:55;;;;;;;43.03;23.48;;;;;;;1.06;91.84;100391.94;5009042;28;20499;-79
2020/12/31 07:27:23;;;;;;;48.53;25.27;;;;;;;1.11;91.77;100397.69;5042544;28;20024;-79
2020/12/31 07:30:00;;;;;;;48.38;24.65;;;;;;;1.16;91.71;100398.19;5049935;28;20082;-79
2020/12/31 07:32:52;;;;;;;43.25;23.83;;;;;;;1.24;91.11;100402.06;5048257;28;20033;-78
2020/12/31 07:35:19;;;;;;;44.17;23.52;;;;;;;1.24;91.17;100402.88;5026916;28;20573;-80
2020/12/31 07:37:50;;;;;;;43.53;23.33;;;;;;;1.31;91.18;100400.78;5046959;28;20045;-79
2020/12/31 07:40:49;;;;;;;39.55;22.65;;;;;;;1.34;91.07;100396.25;5042230;28;20059;-79
2020/12/31 07:43:19;;;;;;;44.50;21.38;;;;;;;1.41;90.99;100407.00;5030600;28;20045;-78
2020/12/31 07:45:51;;;;;;;36.90;21.17;;;;;;;1.44;90.88;100398.25;5027971;28;20037;-79
2020/12/31 07:48:17;;;;;;;37.00;20.95;;;;;;;1.52;91.11;100402.00;5039245;28;20498;-79
2020/12/31 07:50:44;;;;;;;36.67;20.80;;;;;;;1.61;90.74;100404.94;5030513;28;20040;-79
2020/12/31 07:53:11;;;;;;;35.35;20.48;;;;;;;1.63;90.43;100409.09;5017521;28;20116;-79
2020/12/31 07:55:37;;;;;;;38.60;19.05;;;;;;;1.64;90.60;100405.59;5051086;28;20092;-78
2020/12/31 07:58:07;;;;;;;33.25;19.38;;;;;;;1.72;90.12;100394.75;5035113;28;20074;-79
2020/12/31 08:00:33;;;;;;;34.25;19.13;;;;;;;1.78;89.72;100402.09;5050695;28;20479;-78
2020/12/31 08:02:59;;;;;;;33.22;18.83;;;;;;;1.76;89.98;100393.63;5061022;28;20028;-79
2020/12/31 08:05:26;;;;;;;33.47;18.80;;;;;;;1.85;89.89;100405.16;5016872;28;20064;-79
2020/12/31 08:07:57;;;;;;;32.50;18.45;;;;;;;1.89;89.61;100398.84;5034303;28;20041;-78
2020/12/31 08:10:23;;;;;;;29.30;16.75;;;;;;;1.94;89.43;100407.97;5050942;28;20140;-78
2020/12/31 08:13:07;;;;;;;27.67;16.85;;;;;;;1.98;89.17;100410.34;5034435;28;20246;-80
2020/12/31 08:15:33;;;;;;;26.98;15.88;;;;;;;2.00;89.04;100408.47;5050112;28;20108;-78
2020/12/31 08:18:03;;;;;;;30.45;16.63;;;;;;;2.04;89.03;100407.38;5031859;28;20116;-79
2020/12/31 08:20:36;;;;;;;29.45;16.23;;;;;;;2.10;89.00;100412.13;5050566;28;20047;-79
2020/12/31 08:23:04;;;;;;;26.35;15.60;;;;;;;2.07;89.05;100407.16;5041804;28;20044;-79
2020/12/31 08:25:40;;;;;;;24.98;14.75;;;;;;;2.15;88.56;100412.69;5049336;28;20085;-78
2020/12/31 08:28:07;;;;;;;26.75;15.55;;;;;;;2.15;88.59;100410.09;5039288;28;20034;-79
2020/12/31 08:30:34;;;;;;;24.08;15.32;;;;;;;2.17;88.61;100407.38;5019653;28;20041;-79
2020/12/31 08:33:00;;;;;;;21.58;14.05;;;;;;;2.24;88.40;100412.06;5013780;28;20088;-79
2020/12/31 08:35:43;;;;;;;20.98;13.82;;;;;;;2.27;88.18;100414.44;5004132;28;20034;-79
2020/12/31 08:38:11;;;;;;;20.40;13.55;;;;;;;2.33;88.12;100411.44;5037587;28;20112;-78
2020/12/31 08:40:45;;;;;;;21.15;13.40;;;;;;;2.36;87.90;100417.38;5060623;28;20047;-80
2020/12/31 08:43:39;;;;;;;23.27;13.80;;;;;;;2.37;87.71;100419.00;5079914;28;20080;-77
2020/12/31 08:46:08;;;;;;;19.75;12.45;;;;;;;2.33;87.39;100411.44;5047394;28;20538;-78
2020/12/31 08:48:35;;;;;;;17.80;11.68;;;;;;;2.39;87.32;100414.56;5028811;28;20029;-77
2020/12/31 08:51:02;;;;;;;17.40;12.68;;;;;;;2.42;87.32;100417.78;5043209;28;20119;-78
2020/12/31 08:53:28;;;;;;;20.30;13.32;;;;;;;2.44;87.35;100415.09;5032496;28;20630;-77
2020/12/31 08:55:55;;;;;;;21.67;14.32;;;;;;;2.44;87.94;100425.44;5042725;28;20041;-76
2020/12/31 08:58:26;;;;;;;20.88;14.93;;;;;;;2.43;87.75;100418.59;5046124;28;20149;-77
2020/12/31 09:00:52;;;;;;;24.63;16.17;;;;;;;2.46;87.39;100419.22;5063812;28;20090;-76
2020/12/31 09:03:19;;;;;;;21.08;13.20;;;;;;;2.49;87.22;100424.22;5053911;28;20044;-77
2020/12/31 09:05:53;;;;;;;17.85;12.30;;;;;;;2.46;87.20;100418.41;5033388;28;20060;-77
2020/12/31 09:08:18;;;;;;;20.83;11.63;;;;;;;2.49;87.09;100416.44;5047453;28;20036;-76
2020/12/31 09:10:44;;;;;;;19.17;12.50;;;;;;;2.48;87.51;100419.13;5070616;28;20495;-77
2020/12/31 09:13:18;;;;;;;17.98;11.70;;;;;;;2.50;87.83;100422.44;5052297;28;20029;-76
2020/12/31 09:15:43;;;;;;;15.48;11.13;;;;;;;2.55;87.53;100424.75;5042361;28;20123;-79
2020/12/31 09:18:16;;;;;;;15.18;10.88;;;;;;;2.55;87.15;100422.16;5056992;28;20060;-77
2020/12/31 09:20:42;;;;;;;15.40;11.00;;;;;;;2.58;87.12;100424.50;5056681;28;20036;-79
2020/12/31 09:23:09;;;;;;;17.10;10.95;;;;;;;2.57;87.22;100425.47;5053521;28;20513;-79
2020/12/31 09:25:35;;;;;;;15.55;11.20;;;;;;;2.56;87.31;100427.19;5056420;28;20029;-78
2020/12/31 09:28:00;;;;;;;17.38;11.27;;;;;;;2.58;87.09;100420.19;5059851;28;20044;-80
2020/12/31 09:30:29;;;;;;;16.25;10.90;;;;;;;2.58;87.78;100424.50;5026384;28;20502;-78
2020/12/31 09:32:55;;;;;;;16.17;11.35;;;;;;;2.61;87.14;100425.13;5064140;28;20449;-78
2020/12/31 09:35:21;;;;;;;20.35;13.02;;;;;;;2.64;87.35;100421.53;5052653;28;20091;-78
2020/12/31 09:37:48;;;;;;;17.70;12.32;;;;;;;2.63;87.50;100427.63;5047986;28;20036;-78
2020/12/31 09:40:14;;;;;;;16.80;11.13;;;;;;;2.68;87.33;100430.75;5072529;28;20060;-78
2020/12/31 09:42:39;;;;;;;15.23;9.90;;;;;;;2.68;87.49;100428.16;5054206;28;20120;-77
2020/12/31 09:45:05;;;;;;;15.77;10.68;;;;;;;2.68;87.13;100431.56;5050370;28;20053;-78
2020/12/31 09:47:31;;;;;;;14.40;9.60;;;;;;;2.65;87.21;100426.59;5044161;28;20083;-77
2020/12/31 09:49:56;;;;;;;16.35;10.50;;;;;;;2.69;86.69;100430.66;5034510;28;20033;-77
2020/12/31 09:52:22;;;;;;;17.27;11.02;;;;;;;2.66;88.00;100433.44;5035007;28;20511;-77
2020/12/31 09:54:47;;;;;;;15.80;10.77;;;;;;;2.65;87.53;100428.34;5042107;28;20037;-77
2020/12/31 09:57:13;;;;;;;14.32;10.00;;;;;;;2.71;87.45;100435.72;5036184;28;20558;-79
2020/12/31 09:59:38;;;;;;;15.70;10.48;;;;;;;2.68;87.67;100441.13;5048821;28;20119;-78
2020/12/31 10:02:04;;;;;;;17.58;11.55;;;;;;;2.67;87.79;100427.31;5036656;28;20040;-78
2020/12/31 10:04:29;;;;;;;27.25;14.70;;;;;;;2.64;87.63;100418.94;5053977;28;20029;-77
2020/12/31 10:06:55;;;;;;;18.08;10.35;;;;;;;2.63;87.75;100436.22;5056289;28;20367;-78
2020/12/31 10:09:20;;;;;;;15.15;10.52;;;;;;;2.60;87.57;100425.25;5055268;28;20033;-77
2020/12/31 10:11:48;;;;;;;14.20;10.13;;;;;;;2.66;87.33;100440.38;5047100;28;20064;-78
2020/12/31 10:14:14;;;;;;;23.08;11.35;;;;;;;2.65;87.17;100439.53;5040623;28;20025;-78
2020/12/31 10:16:39;;;;;;;16.05;10.55;;;;;;;2.60;87.82;100433.00;5039779;28;20040;-79
2020/12/31 10:19:05;;;;;;;17.23;11.48;;;;;;;2.60;87.82;100435.59;5049522;28;20041;-77
2020/12/31 10:21:30;;;;;;;18.15;10.35;;;;;;;2.59;87.58;100434.78;5044626;28;20039;-77
2020/12/31 10:23:56;;;;;;;17.38;10.77;;;;;;;2.60;88.12;100433.00;5044395;28;20541;-78
2020/12/31 10:26:21;;;;;;;16.13;11.00;;;;;;;2.56;88.26;100434.16;5045327;28;20108;-77
2020/12/31 10:28:47;;;;;;;16.80;10.20;;;;;;;2.59;87.71;100429.59;5034455;28;20052;-77
2020/12/31 10:31:12;;;;;;;16.35;11.05;;;;;;;2.60;88.00;100435.59;5034745;28;20044;-77
2020/12/31 10:33:38;;;;;;;12.15;8.80;;;;;;;2.56;87.75;100436.75;5046783;28;20171;-78
2020/12/31 10:36:04;;;;;;;15.82;9.35;;;;;;;2.55;88.14;100435.09;5018135;28;20610;-78
2020/12/31 10:38:30;;;;;;;13.25;9.18;;;;;;;2.52;88.32;100431.78;5018251;28;20108;-78
2020/12/31 10:40:55;;;;;;;13.73;9.45;;;;;;;2.53;88.83;100430.84;5051414;28;20557;-77
2020/12/31 10:43:21;;;;;;;14.27;9.05;;;;;;;2.52;88.50;100431.78;5051875;28;20036;-78
2020/12/31 10:45:46;;;;;;;12.80;8.93;;;;;;;2.51;88.01;100429.28;5033439;28;20498;-77
2020/12/31 10:48:13;;;;;;;11.55;8.68;;;;;;;2.55;87.61;100430.75;5034644;28;20083;-78
2020/12/31 10:50:38;;;;;;;10.13;7.95;;;;;;;2.60;87.90;100425.25;5052183;28;20037;-77
2020/12/31 10:53:04;;;;;;;11.52;7.97;;;;;;;2.57;88.08;100434.06;5051373;28;20045;-78
2020/12/31 10:55:30;;;;;;;11.93;8.43;;;;;;;2.62;87.47;100421.63;5050406;28;20037;-77
2020/12/31 10:57:55;;;;;;;11.75;8.45;;;;;;;2.64;87.25;100424.13;5036432;28;20495;-77
2020/12/31 11:00:21;;;;;;;10.43;7.25;;;;;;;2.65;87.18;100416.22;5041348;28;20059;-77
2020/12/31 11:02:47;;;;;;;12.70;8.40;;;;;;;2.71;87.36;100425.34;5071109;28;20045;-78
2020/12/31 11:05:13;;;;;;;15.07;8.43;;;;;;;2.66;87.87;100415.31;5046755;28;20033;-77
2020/12/31 11:07:39;;;;;;;11.68;8.45;;;;;;;2.71;87.55;100415.84;5032198;28;20084;-78
2020/12/31 11:10:05;;;;;;;10.95;7.63;;;;;;;2.70;88.18;100415.94;5027176;28;20025;-79
2020/12/31 11:12:31;;;;;;;12.43;8.00;;;;;;;2.68;88.04;100410.03;5046404;28;20026;-77
2020/12/31 11:14:57;;;;;;;11.25;8.48;;;;;;;2.63;87.75;100406.91;5048854;28;20051;-77
2020/12/31 11:17:24;;;;;;;12.88;8.25;;;;;;;2.67;87.97;100416.13;5017610;28;20033;-78
2020/12/31 11:19:49;;;;;;;12.68;9.18;;;;;;;2.66;88.70;100409.31;5068758;28;20043;-78
2020/12/31 11:22:14;;;;;;;14.50;8.82;;;;;;;2.69;88.49;100406.50;5069188;28;20116;-78